createdAt,value
2023-02-28T00:02:54.383Z,102355.78
2023-02-28T00:05:56.500Z,102358.88
2023-02-28T00:08:58.887Z,102368.50
2023-02-28T00:12:04.668Z,102373.09
2023-02-28T00:15:08.928Z,102379.94
2023-02-28T00:18:11.002Z,102382.66
2023-02-28T00:21:13.754Z,102375.50
2023-02-28T00:24:17.091Z,102369.75
2023-02-28T00:27:19.190Z,102383.22
2023-02-28T00:30:23.792Z,102386.69
2023-02-28T00:33:25.880Z,102401.44
2023-02-28T00:36:29.749Z,102401.38
2023-02-28T00:39:32.483Z,102399.84
2023-02-28T00:42:35.988Z,102386.69
2023-02-28T00:45:38.043Z,102403.88
2023-02-28T00:48:40.146Z,102408.19
2023-02-28T00:51:44.184Z,102406.34
2023-02-28T00:54:46.207Z,102415.78
2023-02-28T00:57:50.390Z,102411.28
2023-02-28T01:00:53.843Z,102401.88
2023-02-28T01:03:56.068Z,102409.09
2023-02-28T01:06:58.280Z,102424.63
2023-02-28T01:10:00.553Z,102421.41
2023-02-28T01:13:02.580Z,102434.38
2023-02-28T01:16:05.005Z,102428.38
2023-02-28T01:19:08.919Z,102423.84
2023-02-28T01:22:11.217Z,102443.41
2023-02-28T01:25:14.037Z,102448.06
2023-02-28T01:28:16.145Z,102459.03
2023-02-28T01:31:19.379Z,102453.59
2023-02-28T01:34:21.475Z,102448.28
2023-02-28T01:37:23.506Z,102427.47
2023-02-28T01:40:25.521Z,102438.66
2023-02-28T01:43:50.491Z,102436.50
2023-02-28T01:46:52.527Z,102419.44
2023-02-28T01:49:54.933Z,102423.44
2023-02-28T01:53:01.108Z,102406.81
2023-02-28T01:56:10.094Z,102414.25
2023-02-28T01:59:16.082Z,102411.00
2023-02-28T02:02:20.321Z,102411.00
2023-02-28T02:05:29.686Z,102428.97
2023-02-28T02:08:31.757Z,102438.63
2023-02-28T02:11:35.558Z,102423.63
2023-02-28T02:14:44.814Z,102438.91
2023-02-28T02:17:52.861Z,102431.53
2023-02-28T02:21:25.882Z,102437.25
2023-02-28T02:24:56.984Z,102445.50
2023-02-28T02:28:23.477Z,102451.69
2023-02-28T02:32:10.282Z,102453.75
2023-02-28T02:35:34.995Z,102456.84
2023-02-28T02:38:47.121Z,102465.00
2023-02-28T02:41:54.619Z,102425.59
2023-02-28T02:45:08.443Z,102462.47
2023-02-28T02:48:16.880Z,102458.44
2023-02-28T02:51:23.054Z,102464.66
2023-02-28T02:54:29.897Z,102456.09
2023-02-28T02:57:53.772Z,102477.66
2023-02-28T03:01:00.744Z,102471.47
2023-02-28T03:04:07.972Z,102483.91
2023-02-28T03:07:10.703Z,102474.66
2023-02-28T03:10:36.687Z,102469.91
2023-02-28T03:13:44.048Z,102475.25
2023-02-28T03:17:05.054Z,102490.44
2023-02-28T03:20:19.218Z,102486.28
2023-02-28T03:23:35.917Z,102477.81
2023-02-28T03:26:46.518Z,102471.56
2023-02-28T03:30:04.462Z,102484.94
2023-02-28T03:33:38.056Z,102477.59
2023-02-28T03:36:47.062Z,102470.72
2023-02-28T03:39:57.674Z,102475.94
2023-02-28T03:43:09.482Z,102481.59
2023-02-28T03:46:16.164Z,102473.97
2023-02-28T03:49:26.015Z,102476.34
2023-02-28T03:52:34.806Z,102481.25
2023-02-28T03:55:43.914Z,102478.22
2023-02-28T03:58:58.273Z,102484.28
2023-02-28T04:02:00.894Z,102481.34
2023-02-28T04:05:03.159Z,102485.25
2023-02-28T04:08:09.269Z,102472.56
2023-02-28T04:11:19.837Z,102473.50
2023-02-28T04:14:21.822Z,102484.38
2023-02-28T04:17:23.888Z,102485.69
2023-02-28T04:20:25.940Z,102477.44
2023-02-28T04:23:27.871Z,102483.84
2023-02-28T04:26:34.741Z,102485.53
2023-02-28T04:29:37.099Z,102489.03
2023-02-28T04:32:39.195Z,102489.34
2023-02-28T04:35:41.322Z,102481.97
2023-02-28T04:38:43.309Z,102485.13
2023-02-28T04:41:46.549Z,102463.84
2023-02-28T04:44:48.582Z,102482.75
2023-02-28T04:47:50.811Z,102489.22
2023-02-28T04:50:53.290Z,102484.19
2023-02-28T04:53:56.075Z,102478.38
2023-02-28T04:56:58.607Z,102476.38
2023-02-28T05:00:00.974Z,102476.38
2023-02-28T05:03:03.201Z,102491.81
2023-02-28T05:06:05.452Z,102507.97
2023-02-28T05:09:07.447Z,102510.84
2023-02-28T05:12:10.864Z,102513.09
2023-02-28T05:15:15.141Z,102517.13
2023-02-28T05:18:17.196Z,102514.38
2023-02-28T05:21:32.323Z,102519.88
2023-02-28T05:24:34.490Z,102520.25
2023-02-28T05:27:36.439Z,102519.34
2023-02-28T05:30:38.487Z,102531.47
2023-02-28T05:33:42.034Z,102534.88
2023-02-28T05:36:44.279Z,102538.44
2023-02-28T05:39:46.335Z,102534.44
2023-02-28T05:42:50.994Z,102511.44
2023-02-28T05:45:53.510Z,102540.41
2023-02-28T05:48:57.276Z,102543.31
2023-02-28T05:51:59.617Z,102551.19
2023-02-28T05:55:01.773Z,102537.84
2023-02-28T05:58:04.002Z,102543.44
2023-02-28T06:01:33.784Z,102562.75
2023-02-28T06:04:36.149Z,102559.31
2023-02-28T06:07:38.086Z,102570.69
2023-02-28T06:10:40.286Z,102570.53
2023-02-28T06:13:42.813Z,102573.69
2023-02-28T06:16:45.295Z,102566.00
2023-02-28T06:19:49.096Z,102563.16
2023-02-28T06:22:55.570Z,102548.31
2023-02-28T06:26:00.590Z,102563.28
2023-02-28T06:29:02.659Z,102563.72
2023-02-28T06:32:04.830Z,102561.00
2023-02-28T06:35:07.265Z,102555.03
2023-02-28T06:38:09.270Z,102543.91
2023-02-28T06:41:11.909Z,102554.59
2023-02-28T06:44:18.245Z,102564.41
2023-02-28T06:47:20.386Z,102564.66
2023-02-28T06:50:24.910Z,102559.34
2023-02-28T06:53:26.972Z,102568.81
2023-02-28T06:56:29.132Z,102571.25
2023-02-28T06:59:31.296Z,102566.69
2023-02-28T07:02:33.575Z,102580.09
2023-02-28T07:05:39.640Z,102571.97
2023-02-28T07:08:42.912Z,102571.13
2023-02-28T07:11:44.966Z,102577.81
2023-02-28T07:14:46.986Z,102576.66
2023-02-28T07:17:49.228Z,102578.25
2023-02-28T07:20:51.633Z,102584.50
2023-02-28T07:23:53.694Z,102575.81
2023-02-28T07:26:56.344Z,102586.91
2023-02-28T07:29:58.387Z,102584.34
2023-02-28T07:33:00.386Z,102579.94
2023-02-28T07:36:10.694Z,102594.84
2023-02-28T07:39:12.747Z,102590.56
2023-02-28T07:42:14.735Z,102590.16
2023-02-28T07:45:16.703Z,102577.47
2023-02-28T07:48:18.708Z,102593.47
2023-02-28T07:51:20.818Z,102590.66
2023-02-28T07:54:22.792Z,102601.63
2023-02-28T07:57:25.242Z,102592.63
2023-02-28T08:00:27.383Z,102598.63
2023-02-28T08:03:29.418Z,102595.91
2023-02-28T08:06:31.316Z,102599.34
2023-02-28T08:09:33.549Z,102603.19
2023-02-28T08:12:35.482Z,102595.34
2023-02-28T08:15:37.526Z,102611.72
2023-02-28T08:18:39.565Z,102597.03
2023-02-28T08:21:41.504Z,102604.31
2023-02-28T08:24:44.734Z,102606.88
2023-02-28T08:27:47.075Z,102605.59
2023-02-28T08:30:50.046Z,102596.03
2023-02-28T08:33:53.901Z,102600.59
2023-02-28T08:36:56.743Z,102592.06
2023-02-28T08:39:58.778Z,102602.75
2023-02-28T08:43:18.233Z,102612.44
2023-02-28T08:46:25.485Z,102600.19
2023-02-28T08:49:27.765Z,102603.47
2023-02-28T08:52:29.862Z,102603.31
2023-02-28T08:55:31.916Z,102598.47
2023-02-28T08:58:35.498Z,102598.63
2023-02-28T09:01:37.953Z,102599.31
2023-02-28T09:04:40.063Z,102602.16
2023-02-28T09:07:42.148Z,102600.81
2023-02-28T09:10:44.166Z,102604.28
2023-02-28T09:13:46.860Z,102591.63
2023-02-28T09:16:49.051Z,102603.59
2023-02-28T09:19:51.162Z,102559.16
2023-02-28T09:22:53.210Z,102604.88
2023-02-28T09:25:56.127Z,102607.59
2023-02-28T09:28:59.998Z,102603.88
2023-02-28T09:32:03.007Z,102600.91
2023-02-28T09:35:05.909Z,102603.31
2023-02-28T09:38:11.251Z,102597.81
2023-02-28T09:41:20.151Z,102600.44
2023-02-28T09:44:32.816Z,102600.56
2023-02-28T09:47:40.738Z,102595.03
2023-02-28T09:51:01.828Z,102596.19
2023-02-28T09:54:04.164Z,102599.38
2023-02-28T09:57:08.748Z,102601.19
2023-02-28T10:00:26.119Z,102594.19
2023-02-28T10:03:41.263Z,102601.81
2023-02-28T10:06:51.422Z,102595.25
2023-02-28T10:09:57.580Z,102597.69
2023-02-28T10:13:05.738Z,102587.88
2023-02-28T10:16:44.716Z,102595.78
2023-02-28T10:20:20.983Z,102600.91
2023-02-28T10:23:29.369Z,102582.81
2023-02-28T10:26:33.658Z,102569.13
2023-02-28T10:29:37.134Z,102578.78
2023-02-28T10:32:41.243Z,102567.94
2023-02-28T10:35:43.499Z,102561.56
2023-02-28T10:38:47.041Z,102557.72
2023-02-28T10:41:49.097Z,102553.19
2023-02-28T10:45:05.178Z,102553.88
2023-02-28T10:48:10.263Z,102551.19
2023-02-28T10:51:15.487Z,102526.22
2023-02-28T10:54:22.998Z,102552.59
2023-02-28T10:57:25.686Z,102543.91
2023-02-28T11:00:34.965Z,102547.88
2023-02-28T11:03:36.998Z,102536.09
2023-02-28T11:06:40.679Z,102532.50
2023-02-28T11:09:44.758Z,102531.94
2023-02-28T11:12:52.680Z,102541.47
2023-02-28T11:16:01.195Z,102523.41
2023-02-28T11:19:07.810Z,102528.53
2023-02-28T11:22:12.044Z,102526.50
2023-02-28T11:25:25.414Z,102525.25
2023-02-28T11:28:36.735Z,102515.28
2023-02-28T11:31:38.755Z,102510.72
2023-02-28T11:34:42.212Z,102509.81
2023-02-28T11:37:46.895Z,102488.91
2023-02-28T11:40:58.579Z,102521.81
2023-02-28T11:44:06.548Z,102512.81
2023-02-28T11:47:46.575Z,102514.41
2023-02-28T11:50:48.701Z,102509.81
2023-02-28T11:53:56.748Z,102513.53
2023-02-28T11:57:04.421Z,102506.72
2023-02-28T12:00:31.367Z,102499.47
2023-02-28T12:03:52.062Z,102499.88
2023-02-28T12:07:12.943Z,102503.00
2023-02-28T12:10:15.171Z,102512.84
2023-02-28T12:13:20.484Z,102509.13
2023-02-28T12:16:48.670Z,102503.31
2023-02-28T12:20:18.331Z,102508.88
2023-02-28T12:23:32.426Z,102503.97
2023-02-28T12:26:43.831Z,102506.56
2023-02-28T12:30:00.300Z,102467.22
2023-02-28T12:33:09.487Z,102487.50
2023-02-28T12:36:18.491Z,102485.28
2023-02-28T12:39:49.757Z,102490.16
2023-02-28T12:42:59.423Z,102478.47
2023-02-28T12:46:09.636Z,102488.09
2023-02-28T12:49:20.546Z,102490.47
2023-02-28T12:52:47.659Z,102504.09
2023-02-28T12:56:19.792Z,102499.09
2023-02-28T12:59:24.661Z,102503.81
2023-02-28T13:02:45.367Z,102504.81
2023-02-28T13:06:04.608Z,102496.53
2023-02-28T13:09:06.674Z,102491.13
2023-02-28T13:12:16.512Z,102495.69
2023-02-28T13:15:29.679Z,102478.16
2023-02-28T13:18:40.763Z,102486.66
2023-02-28T13:21:45.915Z,102483.66
2023-02-28T13:24:50.748Z,102493.94
2023-02-28T13:28:02.113Z,102472.72
2023-02-28T13:31:06.562Z,102491.38
2023-02-28T13:34:17.096Z,102489.41
2023-02-28T13:37:18.964Z,102488.56
2023-02-28T13:40:38.271Z,102479.25
2023-02-28T13:44:13.225Z,102474.09
2023-02-28T13:47:23.383Z,102469.94
2023-02-28T13:50:28.073Z,102464.41
2023-02-28T13:54:00.342Z,102461.25
2023-02-28T13:57:21.113Z,102462.63
2023-02-28T14:00:32.747Z,102457.34
2023-02-28T14:03:53.392Z,102459.34
2023-02-28T14:06:58.351Z,102443.25
2023-02-28T14:10:06.719Z,102458.81
2023-02-28T14:13:45.752Z,102453.66
2023-02-28T14:16:52.332Z,102450.69
2023-02-28T14:19:54.613Z,102450.81
2023-02-28T14:23:31.359Z,102450.13
2023-02-28T14:26:55.046Z,102459.78
2023-02-28T14:30:08.160Z,102459.97
2023-02-28T14:33:35.852Z,102458.56
2023-02-28T14:36:44.573Z,102458.84
2023-02-28T14:39:50.662Z,102450.75
2023-02-28T14:43:04.964Z,102458.72
2023-02-28T14:46:08.391Z,102456.91
2023-02-28T14:49:25.895Z,102460.31
2023-02-28T14:52:30.856Z,102456.19
2023-02-28T14:55:36.275Z,102436.09
2023-02-28T14:58:38.657Z,102454.19
2023-02-28T15:01:40.643Z,102439.22
2023-02-28T15:04:43.190Z,102450.41
2023-02-28T15:07:46.730Z,102447.69
2023-02-28T15:11:09.089Z,102449.13
2023-02-28T15:14:19.047Z,102430.63
2023-02-28T15:17:28.796Z,102430.22
2023-02-28T15:20:30.883Z,102438.06
2023-02-28T15:23:35.348Z,102450.91
2023-02-28T15:26:42.057Z,102445.34
2023-02-28T15:29:52.531Z,102444.47
2023-02-28T15:33:13.117Z,102444.19
2023-02-28T15:36:22.003Z,102438.09
2023-02-28T15:39:28.237Z,102443.06
2023-02-28T15:42:30.983Z,102440.34
2023-02-28T15:45:45.643Z,102441.50
2023-02-28T15:48:57.152Z,102444.50
2023-02-28T15:52:01.737Z,102442.03
2023-02-28T15:55:13.966Z,102438.78
2023-02-28T15:58:16.238Z,102445.31
2023-02-28T16:01:35.060Z,102440.19
2023-02-28T16:04:38.212Z,102464.41
2023-02-28T16:07:43.195Z,102456.41
2023-02-28T16:10:45.566Z,102459.13
2023-02-28T16:13:47.774Z,102468.94
2023-02-28T16:16:54.515Z,102476.88
2023-02-28T16:19:57.208Z,102476.47
2023-02-28T16:23:02.553Z,102466.34
2023-02-28T16:26:06.605Z,102481.72
2023-02-28T16:29:11.720Z,102470.59
2023-02-28T16:32:16.749Z,102459.91
2023-02-28T16:35:20.322Z,102479.72
2023-02-28T16:38:24.804Z,102481.09
2023-02-28T16:41:29.643Z,102483.22
2023-02-28T16:44:36.870Z,102492.03
2023-02-28T16:47:39.905Z,102476.63
2023-02-28T16:50:42.636Z,102493.41
2023-02-28T16:53:46.460Z,102487.84
2023-02-28T16:56:52.113Z,102477.31
2023-02-28T16:59:56.786Z,102482.31
2023-02-28T17:03:01.097Z,102482.47
2023-02-28T17:06:03.910Z,102492.09
2023-02-28T17:09:05.958Z,102482.03
2023-02-28T17:12:09.430Z,102482.03
2023-02-28T17:15:13.291Z,102481.25
2023-02-28T17:18:20.014Z,102485.00
2023-02-28T17:21:22.129Z,102478.34
2023-02-28T17:24:30.870Z,102482.63
2023-02-28T17:27:36.728Z,102486.97
2023-02-28T17:30:39.150Z,102491.56
2023-02-28T17:33:42.196Z,102471.31
2023-02-28T17:36:44.757Z,102478.75
2023-02-28T17:39:47.237Z,102486.28
2023-02-28T17:43:32.496Z,102482.00
2023-02-28T17:46:34.939Z,102479.84
2023-02-28T17:49:43.346Z,102486.56
2023-02-28T17:52:45.432Z,102475.69
2023-02-28T17:55:52.710Z,102480.53
2023-02-28T17:58:57.272Z,102477.09
2023-02-28T18:02:02.213Z,102489.00
2023-02-28T18:05:06.640Z,102471.78
2023-02-28T18:08:11.659Z,102489.22
2023-02-28T18:11:22.152Z,102478.66
2023-02-28T18:14:26.605Z,102494.72
2023-02-28T18:17:31.313Z,102471.59
2023-02-28T18:20:37.681Z,102483.56
2023-02-28T18:23:47.781Z,102470.16
2023-02-28T18:26:49.754Z,102473.28
2023-02-28T18:29:52.904Z,102464.25
2023-02-28T18:32:54.890Z,102478.00
2023-02-28T18:35:57.939Z,102466.22
2023-02-28T18:39:00.069Z,102470.72
2023-02-28T18:42:02.325Z,102467.38
2023-02-28T18:45:05.013Z,102470.44
2023-02-28T18:48:09.494Z,102474.88
2023-02-28T18:51:20.144Z,102480.28
2023-02-28T18:54:22.588Z,102480.53
2023-02-28T18:57:25.067Z,102479.41
2023-02-28T19:00:27.310Z,102489.88
2023-02-28T19:03:31.945Z,102488.09
2023-02-28T19:06:35.107Z,102494.34
2023-02-28T19:09:37.235Z,102487.22
2023-02-28T19:12:40.063Z,102483.47
2023-02-28T19:15:42.171Z,102476.91
2023-02-28T19:18:44.871Z,102478.81
2023-02-28T19:21:47.053Z,102480.38
2023-02-28T19:24:51.128Z,102481.53
2023-02-28T19:27:54.851Z,102471.78
2023-02-28T19:30:59.591Z,102463.28
2023-02-28T19:34:02.105Z,102470.19
2023-02-28T19:37:04.475Z,102471.31
2023-02-28T19:40:11.239Z,102473.28
2023-02-28T19:43:14.886Z,102472.59
2023-02-28T19:46:17.478Z,102468.63
2023-02-28T19:49:19.501Z,102469.56
2023-02-28T19:52:22.645Z,102443.75
2023-02-28T19:55:25.039Z,102457.94
2023-02-28T19:58:29.140Z,102462.41
2023-02-28T20:01:31.348Z,102451.72
2023-02-28T20:04:33.424Z,102460.56
2023-02-28T20:07:35.827Z,102450.44
2023-02-28T20:10:40.828Z,102438.19
2023-02-28T20:13:43.437Z,102455.31
2023-02-28T20:16:46.168Z,102433.41
2023-02-28T20:19:48.633Z,102441.84
2023-02-28T20:22:51.527Z,102453.22
2023-02-28T20:25:54.317Z,102450.75
2023-02-28T20:28:56.991Z,102454.72
2023-02-28T20:31:59.471Z,102456.63
2023-02-28T20:35:01.565Z,102444.38
2023-02-28T20:38:03.596Z,102446.03
2023-02-28T20:41:47.780Z,102446.38
2023-02-28T20:44:50.162Z,102440.03
2023-02-28T20:47:52.393Z,102438.41
2023-02-28T20:50:59.945Z,102437.97
2023-02-28T20:54:04.556Z,102438.00
2023-02-28T20:57:08.091Z,102424.44
2023-02-28T21:00:16.460Z,102426.25
2023-02-28T21:03:18.522Z,102431.47
2023-02-28T21:06:23.414Z,102408.31
2023-02-28T21:09:25.481Z,102411.81
2023-02-28T21:12:27.772Z,102419.78
2023-02-28T21:15:30.066Z,102395.88
2023-02-28T21:18:35.036Z,102408.94
2023-02-28T21:21:40.169Z,102411.31
2023-02-28T21:24:45.137Z,102419.69
2023-02-28T21:27:48.586Z,102425.84
2023-02-28T21:30:50.960Z,102423.28
2023-02-28T21:33:54.835Z,102427.97
2023-02-28T21:36:57.093Z,102421.09
2023-02-28T21:39:59.196Z,102425.66
2023-02-28T21:43:01.270Z,102442.66
2023-02-28T21:46:06.573Z,102423.97
2023-02-28T21:49:08.863Z,102428.00
2023-02-28T21:52:11.719Z,102434.28
2023-02-28T21:55:13.780Z,102431.44
2023-02-28T21:58:16.292Z,102421.16
2023-02-28T22:01:21.520Z,102427.00
2023-02-28T22:04:23.851Z,102409.81
2023-02-28T22:07:26.063Z,102415.69
2023-02-28T22:10:28.016Z,102421.78
2023-02-28T22:13:30.385Z,102416.13
2023-02-28T22:16:49.566Z,102406.59
2023-02-28T22:19:53.046Z,102422.16
2023-02-28T22:22:55.354Z,102413.75
2023-02-28T22:26:00.261Z,102421.56
2023-02-28T22:29:02.375Z,102421.59
2023-02-28T22:32:04.678Z,102435.63
2023-02-28T22:35:07.964Z,102431.41
2023-02-28T22:38:11.163Z,102415.75
2023-02-28T22:41:14.285Z,102435.47
2023-02-28T22:44:16.638Z,102438.66
2023-02-28T22:47:18.977Z,102436.84
2023-02-28T22:50:21.042Z,102437.84
2023-02-28T22:53:23.057Z,102443.16
2023-02-28T22:56:27.407Z,102435.16
2023-02-28T22:59:30.445Z,102421.91
2023-02-28T23:02:33.179Z,102433.91
2023-02-28T23:05:35.202Z,102438.28
2023-02-28T23:08:37.276Z,102424.47
2023-02-28T23:11:44.980Z,102437.72
2023-02-28T23:14:47.057Z,102443.41
2023-02-28T23:17:50.614Z,102430.75
2023-02-28T23:20:52.670Z,102433.34
2023-02-28T23:23:54.977Z,102431.91
2023-02-28T23:26:59.318Z,102437.44
2023-02-28T23:30:03.123Z,102425.63
2023-02-28T23:33:06.876Z,102417.34
2023-02-28T23:36:15.999Z,102422.09
2023-02-28T23:39:19.171Z,102431.78
2023-02-28T23:42:21.274Z,102424.09
2023-02-28T23:45:23.458Z,102432.50
2023-02-28T23:48:25.412Z,102427.16
2023-02-28T23:51:27.418Z,102417.63
2023-02-28T23:54:29.943Z,102406.31
2023-02-28T23:57:31.942Z,102422.84
